Divinopolis de Goias, Brazil
Current Conditions -  °F | °C
As of 3:00 PM on Wednesday 26 Nov 2014 (Local Time) from SBBR Reporting Station
Thunderstorm Thunderstorm  
Wind Chill: 79°   Ceiling: 8000
Heat Index: 80°   Visibility: 6mi
Dew Point: 63°   Wind: 9mph
Humidity: 57%   Direction: 20°NNE
Pressure: NA   Gusts: NA
Location:  13.3°S, 46.39°W
Report Text: SBBR 261700Z 02008KT 9999 VCTS SCT030 FEW045CB BKN080 26/17 Q1015
Loading
Personal Weather Stations






























Interactive Weather Map New forecast layout! Learn more

10-Day Weather Forecast

Advertisements
Track Severe Weather on mobile